LROP - BUCURESTI / HENRI COANDA

Compiled: 18:01:16 on 22/07/2018

Latest METAR/SPECI Reports

METAR LROP 221730Z 36007KT CAVOK 23/19 Q1007 NOSIG=

Previous reports

METAR LROP 221700Z 01004KT CAVOK 24/18 Q1007 NOSIG=
METAR LROP 221630Z 03006KT 360V060 CAVOK 25/17 Q1007 NOSIG=
METAR LROP 221600Z 03007KT CAVOK 25/18 Q1007 NOSIG=
METAR COR LROP 221530Z 04007KT 010V070 CAVOK 26/18 Q1008 R88/CLRD// NOSIG=

Latest TAF report

TAF LROP 221700Z 2218/2318 VRB04KT CAVOK TEMPO 2220/2224 SCT040CB PROB40 TEMPO 2220/2224 VRB15G25KT 5000 TSRA TEMPO 2306/2310 5000 -SHRA SCT015 SCT040CB TEMPO 2310/2318 VRB20KT 5000 TSRA SCT015 SCT040CB=

Valid WARNINGS

No valid warnings for LROP